sensor_id;sensor_type;location;lat;lon;timestamp;pressure;altitude;pressure_sealevel;temperature;humidity
39789;BME280;25478;42.626;23.320;2023-02-11T00:01:56;94631.44;;;-5.43;69.03
39789;BME280;25478;42.626;23.320;2023-02-11T00:04:24;94634.44;;;-5.29;68.17
39789;BME280;25478;42.626;23.320;2023-02-11T00:06:49;94633.72;;;-5.25;68.09
39789;BME280;25478;42.626;23.320;2023-02-11T00:09:15;94640.72;;;-5.20;68.09
39789;BME280;25478;42.626;23.320;2023-02-11T00:11:40;94634.81;;;-5.21;68.11
39789;BME280;25478;42.626;23.320;2023-02-11T00:14:05;94634.75;;;-5.26;67.60
39789;BME280;25478;42.626;23.320;2023-02-11T00:16:32;94633.13;;;-5.32;67.78
39789;BME280;25478;42.626;23.320;2023-02-11T00:18:58;94639.66;;;-5.41;68.14
39789;BME280;25478;42.626;23.320;2023-02-11T00:21:24;94631.59;;;-5.50;67.91
39789;BME280;25478;42.626;23.320;2023-02-11T00:23:49;94642.50;;;-5.59;67.82
39789;BME280;25478;42.626;23.320;2023-02-11T00:26:19;94634.91;;;-5.71;68.03
39789;BME280;25478;42.626;23.320;2023-02-11T00:28:45;94640.63;;;-5.81;68.17
39789;BME280;25478;42.626;23.320;2023-02-11T00:31:11;94643.84;;;-5.90;68.47
39789;BME280;25478;42.626;23.320;2023-02-11T00:33:37;94632.97;;;-5.98;68.26
39789;BME280;25478;42.626;23.320;2023-02-11T00:36:04;94639.28;;;-6.05;68.50
39789;BME280;25478;42.626;23.320;2023-02-11T00:38:30;94639.09;;;-6.15;68.68
39789;BME280;25478;42.626;23.320;2023-02-11T00:40:55;94633.31;;;-6.22;68.55
39789;BME280;25478;42.626;23.320;2023-02-11T00:43:21;94636.25;;;-6.31;68.75
39789;BME280;25478;42.626;23.320;2023-02-11T00:45:46;94635.66;;;-6.38;68.81
39789;BME280;25478;42.626;23.320;2023-02-11T00:48:12;94628.88;;;-6.44;68.74
39789;BME280;25478;42.626;23.320;2023-02-11T00:50:37;94625.44;;;-6.49;69.13
39789;BME280;25478;42.626;23.320;2023-02-11T00:53:02;94616.91;;;-6.55;68.91
39789;BME280;25478;42.626;23.320;2023-02-11T00:55:28;94619.34;;;-6.60;69.04
39789;BME280;25478;42.626;23.320;2023-02-11T00:57:53;94617.47;;;-6.65;68.95
39789;BME280;25478;42.626;23.320;2023-02-11T01:00:18;94625.09;;;-6.70;69.18
39789;BME280;25478;42.626;23.320;2023-02-11T01:02:44;94619.63;;;-6.73;69.22
39789;BME280;25478;42.626;23.320;2023-02-11T01:05:09;94617.75;;;-6.78;69.24
39789;BME280;25478;42.626;23.320;2023-02-11T01:07:35;94619.00;;;-6.81;69.52
39789;BME280;25478;42.626;23.320;2023-02-11T01:10:00;94619.97;;;-6.82;69.22
39789;BME280;25478;42.626;23.320;2023-02-11T01:12:28;94622.78;;;-6.83;69.56
39789;BME280;25478;42.626;23.320;2023-02-11T01:14:55;94617.34;;;-6.87;69.41
39789;BME280;25478;42.626;23.320;2023-02-11T01:17:21;94614.69;;;-6.92;69.40
39789;BME280;25478;42.626;23.320;2023-02-11T01:19:48;94608.47;;;-6.96;69.40
39789;BME280;25478;42.626;23.320;2023-02-11T01:22:13;94611.25;;;-6.97;69.64
39789;BME280;25478;42.626;23.320;2023-02-11T01:24:39;94600.44;;;-6.99;69.76
39789;BME280;25478;42.626;23.320;2023-02-11T01:27:06;94602.22;;;-7.00;69.67
39789;BME280;25478;42.626;23.320;2023-02-11T01:29:31;94604.38;;;-7.09;69.59
39789;BME280;25478;42.626;23.320;2023-02-11T01:31:56;94613.94;;;-7.04;69.51
39789;BME280;25478;42.626;23.320;2023-02-11T01:34:24;94615.38;;;-7.08;69.69
39789;BME280;25478;42.626;23.320;2023-02-11T01:36:49;94613.06;;;-7.10;69.70
39789;BME280;25478;42.626;23.320;2023-02-11T01:39:15;94605.59;;;-7.11;69.59
39789;BME280;25478;42.626;23.320;2023-02-11T01:41:40;94604.28;;;-7.14;69.65
39789;BME280;25478;42.626;23.320;2023-02-11T01:46:50;94599.28;;;-7.20;69.77
39789;BME280;25478;42.626;23.320;2023-02-11T01:49:20;94596.38;;;-7.24;69.73
39789;BME280;25478;42.626;23.320;2023-02-11T01:52:08;94591.72;;;-7.27;69.89
39789;BME280;25478;42.626;23.320;2023-02-11T01:54:41;94598.88;;;-7.29;70.10
39789;BME280;25478;42.626;23.320;2023-02-11T01:57:28;94593.19;;;-7.31;69.87
39789;BME280;25478;42.626;23.320;2023-02-11T01:59:58;94599.28;;;-7.32;69.92
39789;BME280;25478;42.626;23.320;2023-02-11T02:08:03;94597.44;;;-7.37;69.80
39789;BME280;25478;42.626;23.320;2023-02-11T02:10:30;94601.22;;;-7.39;69.77
39789;BME280;25478;42.626;23.320;2023-02-11T02:12:58;94592.19;;;-7.42;69.81
39789;BME280;25478;42.626;23.320;2023-02-11T02:15:25;94591.41;;;-7.42;69.88
39789;BME280;25478;42.626;23.320;2023-02-11T02:23:15;94597.09;;;-7.52;69.66
39789;BME280;25478;42.626;23.320;2023-02-11T02:38:30;94587.09;;;-7.65;70.22
39789;BME280;25478;42.626;23.320;2023-02-11T02:43:24;94590.34;;;-7.70;70.01
39789;BME280;25478;42.626;23.320;2023-02-11T02:45:50;94588.00;;;-7.71;70.15
39789;BME280;25478;42.626;23.320;2023-02-11T02:48:25;94583.44;;;-7.69;70.32
39789;BME280;25478;42.626;23.320;2023-02-11T02:50:52;94581.34;;;-7.72;70.40
39789;BME280;25478;42.626;23.320;2023-02-11T02:53:23;94585.47;;;-7.71;70.45
39789;BME280;25478;42.626;23.320;2023-02-11T02:58:32;94582.34;;;-7.73;70.26
39789;BME280;25478;42.626;23.320;2023-02-11T03:06:07;94587.00;;;-7.58;70.33
39789;BME280;25478;42.626;23.320;2023-02-11T03:08:37;94591.88;;;-7.57;69.85
39789;BME280;25478;42.626;23.320;2023-02-11T03:11:05;94597.00;;;-7.57;69.95
39789;BME280;25478;42.626;23.320;2023-02-11T03:13:33;94596.22;;;-7.57;70.31
39789;BME280;25478;42.626;23.320;2023-02-11T03:16:33;94601.78;;;-7.60;69.85
39789;BME280;25478;42.626;23.320;2023-02-11T03:18:57;94593.03;;;-7.64;70.11
39789;BME280;25478;42.626;23.320;2023-02-11T03:21:23;94594.91;;;-7.72;70.26
39789;BME280;25478;42.626;23.320;2023-02-11T03:23:52;94591.00;;;-7.74;70.09
39789;BME280;25478;42.626;23.320;2023-02-11T03:26:31;94589.78;;;-7.72;70.22
39789;BME280;25478;42.626;23.320;2023-02-11T03:29:02;94594.69;;;-7.70;70.27
39789;BME280;25478;42.626;23.320;2023-02-11T03:31:46;94587.00;;;-7.70;70.21
39789;BME280;25478;42.626;23.320;2023-02-11T03:34:17;94580.13;;;-7.70;70.12
39789;BME280;25478;42.626;23.320;2023-02-11T03:39:15;94576.84;;;-7.42;70.15
39789;BME280;25478;42.626;23.320;2023-02-11T03:41:43;94579.47;;;-7.25;70.15
39789;BME280;25478;42.626;23.320;2023-02-11T03:44:09;94578.00;;;-7.09;69.81
39789;BME280;25478;42.626;23.320;2023-02-11T03:46:37;94579.06;;;-6.93;69.33
39789;BME280;25478;42.626;23.320;2023-02-11T03:49:06;94580.25;;;-6.84;68.96
39789;BME280;25478;42.626;23.320;2023-02-11T03:51:32;94588.34;;;-6.75;68.95
39789;BME280;25478;42.626;23.320;2023-02-11T03:53:59;94578.22;;;-6.70;69.03
39789;BME280;25478;42.626;23.320;2023-02-11T03:56:26;94579.41;;;-6.73;68.77
39789;BME280;25478;42.626;23.320;2023-02-11T03:58:53;94573.69;;;-6.80;69.08
39789;BME280;25478;42.626;23.320;2023-02-11T04:01:18;94580.72;;;-6.87;69.11
39789;BME280;25478;42.626;23.320;2023-02-11T04:03:44;94577.19;;;-6.98;69.01
39789;BME280;25478;42.626;23.320;2023-02-11T04:06:09;94582.69;;;-7.06;68.93
39789;BME280;25478;42.626;23.320;2023-02-11T04:08:35;94584.34;;;-7.12;69.09
39789;BME280;25478;42.626;23.320;2023-02-11T04:11:00;94583.25;;;-7.16;69.04
39789;BME280;25478;42.626;23.320;2023-02-11T04:13:26;94586.25;;;-7.19;69.01
39789;BME280;25478;42.626;23.320;2023-02-11T04:15:51;94589.28;;;-7.22;69.05
39789;BME280;25478;42.626;23.320;2023-02-11T04:18:16;94592.75;;;-7.28;69.11
39789;BME280;25478;42.626;23.320;2023-02-11T04:20:42;94586.72;;;-7.33;69.38
39789;BME280;25478;42.626;23.320;2023-02-11T04:23:07;94586.84;;;-7.40;69.68
39789;BME280;25478;42.626;23.320;2023-02-11T04:25:32;94587.19;;;-7.48;69.56
39789;BME280;25478;42.626;23.320;2023-02-11T04:27:58;94589.91;;;-7.55;69.71
39789;BME280;25478;42.626;23.320;2023-02-11T04:30:23;94584.13;;;-7.62;69.71
39789;BME280;25478;42.626;23.320;2023-02-11T04:32:49;94576.78;;;-7.70;69.80
39789;BME280;25478;42.626;23.320;2023-02-11T04:35:14;94577.44;;;-7.75;69.63
39789;BME280;25478;42.626;23.320;2023-02-11T04:37:39;94583.00;;;-7.78;69.96
39789;BME280;25478;42.626;23.320;2023-02-11T04:40:05;94578.56;;;-7.82;70.02
39789;BME280;25478;42.626;23.320;2023-02-11T04:42:30;94575.69;;;-7.86;69.89
39789;BME280;25478;42.626;23.320;2023-02-11T04:44:56;94577.69;;;-7.88;70.05
39789;BME280;25478;42.626;23.320;2023-02-11T04:47:21;94570.44;;;-7.91;69.80
39789;BME280;25478;42.626;23.320;2023-02-11T04:49:46;94567.56;;;-7.95;70.24
39789;BME280;25478;42.626;23.320;2023-02-11T04:52:12;94574.13;;;-7.99;70.02
39789;BME280;25478;42.626;23.320;2023-02-11T04:54:37;94570.22;;;-8.01;70.02
39789;BME280;25478;42.626;23.320;2023-02-11T04:57:02;94579.91;;;-8.03;70.09
39789;BME280;25478;42.626;23.320;2023-02-11T04:59:28;94578.34;;;-8.04;69.89
39789;BME280;25478;42.626;23.320;2023-02-11T05:01:53;94567.34;;;-8.05;70.12
39789;BME280;25478;42.626;23.320;2023-02-11T05:04:19;94567.78;;;-8.08;69.98
39789;BME280;25478;42.626;23.320;2023-02-11T05:06:44;94564.44;;;-8.08;70.02
39789;BME280;25478;42.626;23.320;2023-02-11T05:09:11;94560.31;;;-8.09;70.03
39789;BME280;25478;42.626;23.320;2023-02-11T05:11:36;94555.44;;;-8.11;70.05
39789;BME280;25478;42.626;23.320;2023-02-11T05:14:03;94559.78;;;-8.11;69.91
39789;BME280;25478;42.626;23.320;2023-02-11T05:16:29;94554.66;;;-8.11;70.07
39789;BME280;25478;42.626;23.320;2023-02-11T05:18:55;94555.66;;;-8.12;69.82
39789;BME280;25478;42.626;23.320;2023-02-11T05:21:20;94555.13;;;-8.14;69.91
39789;BME280;25478;42.626;23.320;2023-02-11T05:23:46;94550.00;;;-8.14;69.89
39789;BME280;25478;42.626;23.320;2023-02-11T05:26:11;94555.31;;;-8.16;69.86
39789;BME280;25478;42.626;23.320;2023-02-11T05:28:37;94556.53;;;-8.18;70.00
39789;BME280;25478;42.626;23.320;2023-02-11T05:31:03;94559.09;;;-8.18;69.89
39789;BME280;25478;42.626;23.320;2023-02-11T05:33:29;94559.09;;;-8.18;69.95
39789;BME280;25478;42.626;23.320;2023-02-11T05:36:04;94568.78;;;-8.20;69.92
39789;BME280;25478;42.626;23.320;2023-02-11T05:38:31;94564.66;;;-8.22;69.68
39789;BME280;25478;42.626;23.320;2023-02-11T05:40:56;94561.56;;;-8.24;70.05
39789;BME280;25478;42.626;23.320;2023-02-11T05:43:22;94555.88;;;-8.26;69.98
39789;BME280;25478;42.626;23.320;2023-02-11T05:45:47;94555.44;;;-8.23;70.05
39789;BME280;25478;42.626;23.320;2023-02-11T05:48:12;94563.13;;;-8.23;70.04
39789;BME280;25478;42.626;23.320;2023-02-11T05:50:38;94556.00;;;-8.20;70.00
39789;BME280;25478;42.626;23.320;2023-02-11T05:53:03;94557.78;;;-8.21;70.21
39789;BME280;25478;42.626;23.320;2023-02-11T05:55:30;94560.22;;;-8.14;70.21
39789;BME280;25478;42.626;23.320;2023-02-11T05:57:55;94555.34;;;-8.04;70.06
39789;BME280;25478;42.626;23.320;2023-02-11T06:00:21;94562.69;;;-7.96;70.15
39789;BME280;25478;42.626;23.320;2023-02-11T06:02:46;94560.56;;;-7.87;70.11
39789;BME280;25478;42.626;23.320;2023-02-11T06:05:11;94564.88;;;-7.76;69.90
39789;BME280;25478;42.626;23.320;2023-02-11T06:07:37;94571.22;;;-7.67;69.62
39789;BME280;25478;42.626;23.320;2023-02-11T06:10:02;94572.00;;;-7.55;69.48
39789;BME280;25478;42.626;23.320;2023-02-11T06:12:28;94578.53;;;-7.47;69.55
39789;BME280;25478;42.626;23.320;2023-02-11T06:14:53;94573.28;;;-7.41;69.35
39789;BME280;25478;42.626;23.320;2023-02-11T06:17:19;94574.47;;;-7.31;69.41
39789;BME280;25478;42.626;23.320;2023-02-11T06:19:44;94571.91;;;-7.20;69.56
39789;BME280;25478;42.626;23.320;2023-02-11T06:22:09;94576.75;;;-7.06;69.40
39789;BME280;25478;42.626;23.320;2023-02-11T06:24:35;94574.97;;;-6.94;69.27
39789;BME280;25478;42.626;23.320;2023-02-11T06:27:02;94574.47;;;-6.79;69.38
39789;BME280;25478;42.626;23.320;2023-02-11T06:29:27;94578.38;;;-6.60;69.10
39789;BME280;25478;42.626;23.320;2023-02-11T06:31:53;94575.16;;;-6.39;69.13
39789;BME280;25478;42.626;23.320;2023-02-11T06:34:18;94576.00;;;-6.16;69.13
39789;BME280;25478;42.626;23.320;2023-02-11T06:36:43;94571.41;;;-5.98;68.57
39789;BME280;25478;42.626;23.320;2023-02-11T06:39:09;94570.91;;;-5.78;68.32
39789;BME280;25478;42.626;23.320;2023-02-11T06:41:36;94566.53;;;-5.60;68.21
39789;BME280;25478;42.626;23.320;2023-02-11T06:44:01;94571.31;;;-5.47;68.06
39789;BME280;25478;42.626;23.320;2023-02-11T06:46:27;94579.88;;;-5.42;67.87
39789;BME280;25478;42.626;23.320;2023-02-11T06:48:52;94579.47;;;-5.33;67.92
39789;BME280;25478;42.626;23.320;2023-02-11T06:51:18;94580.31;;;-5.28;67.91
39789;BME280;25478;42.626;23.320;2023-02-11T06:53:44;94585.81;;;-5.19;67.59
39789;BME280;25478;42.626;23.320;2023-02-11T06:56:13;94584.91;;;-5.08;67.73
39789;BME280;25478;42.626;23.320;2023-02-11T06:58:39;94577.53;;;-4.99;67.51
39789;BME280;25478;42.626;23.320;2023-02-11T07:01:09;94585.13;;;-4.88;67.39
39789;BME280;25478;42.626;23.320;2023-02-11T07:03:36;94588.00;;;-4.84;66.82
39789;BME280;25478;42.626;23.320;2023-02-11T07:06:02;94580.63;;;-4.75;66.89
39789;BME280;25478;42.626;23.320;2023-02-11T07:08:29;94582.19;;;-4.74;67.26
39789;BME280;25478;42.626;23.320;2023-02-11T07:10:55;94588.19;;;-4.64;67.54
39789;BME280;25478;42.626;23.320;2023-02-11T07:13:20;94581.59;;;-4.55;67.47
39789;BME280;25478;42.626;23.320;2023-02-11T07:15:45;94584.31;;;-4.39;67.24
39789;BME280;25478;42.626;23.320;2023-02-11T07:18:11;94582.66;;;-4.23;67.11
39789;BME280;25478;42.626;23.320;2023-02-11T07:20:36;94574.31;;;-4.09;66.82
39789;BME280;25478;42.626;23.320;2023-02-11T07:23:03;94577.53;;;-3.91;66.19
39789;BME280;25478;42.626;23.320;2023-02-11T07:25:28;94565.69;;;-3.87;66.23
39789;BME280;25478;42.626;23.320;2023-02-11T07:27:54;94562.91;;;-3.81;66.08
39789;BME280;25478;42.626;23.320;2023-02-11T07:30:19;94561.41;;;-3.77;65.92
39789;BME280;25478;42.626;23.320;2023-02-11T07:32:44;94561.94;;;-3.75;65.25
39789;BME280;25478;42.626;23.320;2023-02-11T07:35:12;94554.75;;;-3.73;64.79
39789;BME280;25478;42.626;23.320;2023-02-11T07:37:37;94559.16;;;-3.68;64.49
39789;BME280;25478;42.626;23.320;2023-02-11T07:40:02;94546.28;;;-3.63;64.34
39789;BME280;25478;42.626;23.320;2023-02-11T07:42:28;94553.56;;;-3.55;65.04
39789;BME280;25478;42.626;23.320;2023-02-11T07:44:53;94553.34;;;-3.48;64.42
39789;BME280;25478;42.626;23.320;2023-02-11T07:47:18;94548.78;;;-3.36;64.31
39789;BME280;25478;42.626;23.320;2023-02-11T07:49:44;94542.38;;;-3.23;64.68
39789;BME280;25478;42.626;23.320;2023-02-11T07:52:09;94556.63;;;-3.10;63.87
39789;BME280;25478;42.626;23.320;2023-02-11T07:54:35;94553.00;;;-3.04;63.08
39789;BME280;25478;42.626;23.320;2023-02-11T07:57:00;94553.25;;;-3.11;62.08
39789;BME280;25478;42.626;23.320;2023-02-11T07:59:25;94553.00;;;-3.09;62.83
39789;BME280;25478;42.626;23.320;2023-02-11T08:01:51;94543.47;;;-3.04;62.02
39789;BME280;25478;42.626;23.320;2023-02-11T08:04:17;94549.69;;;-3.00;62.51
39789;BME280;25478;42.626;23.320;2023-02-11T08:06:42;94541.19;;;-2.95;62.28
39789;BME280;25478;42.626;23.320;2023-02-11T08:09:09;94542.75;;;-2.89;61.53
39789;BME280;25478;42.626;23.320;2023-02-11T08:11:37;94542.78;;;-2.84;61.69
39789;BME280;25478;42.626;23.320;2023-02-11T08:14:02;94542.03;;;-2.74;61.56
39789;BME280;25478;42.626;23.320;2023-02-11T08:16:31;94537.69;;;-2.59;61.78
39789;BME280;25478;42.626;23.320;2023-02-11T08:18:58;94542.06;;;-2.44;61.67
39789;BME280;25478;42.626;23.320;2023-02-11T08:21:24;94536.91;;;-2.39;60.52
39789;BME280;25478;42.626;23.320;2023-02-11T08:23:49;94533.81;;;-2.41;60.13
39789;BME280;25478;42.626;23.320;2023-02-11T08:26:17;94539.00;;;-2.41;59.60
39789;BME280;25478;42.626;23.320;2023-02-11T08:28:43;94549.56;;;-2.37;58.94
39789;BME280;25478;42.626;23.320;2023-02-11T08:31:10;94546.19;;;-2.38;59.12
39789;BME280;25478;42.626;23.320;2023-02-11T08:33:36;94542.84;;;-2.28;59.19
39789;BME280;25478;42.626;23.320;2023-02-11T08:36:08;94545.44;;;-2.28;58.64
39789;BME280;25478;42.626;23.320;2023-02-11T08:38:34;94539.25;;;-2.22;58.47
39789;BME280;25478;42.626;23.320;2023-02-11T08:41:00;94538.75;;;-2.14;58.09
39789;BME280;25478;42.626;23.320;2023-02-11T08:43:25;94539.25;;;-2.12;58.42
39789;BME280;25478;42.626;23.320;2023-02-11T08:45:51;94543.38;;;-2.06;57.57
39789;BME280;25478;42.626;23.320;2023-02-11T08:48:16;94545.44;;;-2.08;56.78
39789;BME280;25478;42.626;23.320;2023-02-11T08:50:41;94547.25;;;-2.18;56.45
39789;BME280;25478;42.626;23.320;2023-02-11T08:53:07;94550.59;;;-2.28;56.28
39789;BME280;25478;42.626;23.320;2023-02-11T08:55:32;94552.16;;;-2.32;57.41
39789;BME280;25478;42.626;23.320;2023-02-11T08:57:58;94554.47;;;-2.31;57.13
39789;BME280;25478;42.626;23.320;2023-02-11T09:00:23;94558.88;;;-2.26;57.21
39789;BME280;25478;42.626;23.320;2023-02-11T09:02:48;94553.97;;;-2.22;57.35
39789;BME280;25478;42.626;23.320;2023-02-11T09:05:14;94548.03;;;-2.18;57.44
39789;BME280;25478;42.626;23.320;2023-02-11T09:07:39;94549.03;;;-2.19;57.86
39789;BME280;25478;42.626;23.320;2023-02-11T09:10:05;94549.06;;;-2.09;58.07
39789;BME280;25478;42.626;23.320;2023-02-11T09:12:30;94547.00;;;-2.07;58.15
39789;BME280;25478;42.626;23.320;2023-02-11T09:14:56;94547.50;;;-2.00;58.55
39789;BME280;25478;42.626;23.320;2023-02-11T09:17:21;94545.44;;;-1.87;58.88
39789;BME280;25478;42.626;23.320;2023-02-11T09:19:47;94539.50;;;-1.83;57.80
39789;BME280;25478;42.626;23.320;2023-02-11T09:22:12;94542.31;;;-1.79;58.36
39789;BME280;25478;42.626;23.320;2023-02-11T09:24:37;94539.75;;;-1.79;58.24
39789;BME280;25478;42.626;23.320;2023-02-11T09:27:03;94534.59;;;-1.79;58.04
39789;BME280;25478;42.626;23.320;2023-02-11T09:29:29;94534.31;;;-1.73;57.89
39789;BME280;25478;42.626;23.320;2023-02-11T09:31:54;94532.75;;;-1.68;57.85
39789;BME280;25478;42.626;23.320;2023-02-11T09:34:20;94533.50;;;-1.53;58.16
39789;BME280;25478;42.626;23.320;2023-02-11T09:36:45;94525.97;;;-1.39;57.41
39789;BME280;25478;42.626;23.320;2023-02-11T09:39:17;94522.34;;;-1.38;57.09
39789;BME280;25478;42.626;23.320;2023-02-11T09:44:26;94521.53;;;-1.28;57.47
39789;BME280;25478;42.626;23.320;2023-02-11T09:46:53;94511.16;;;-1.18;56.51
39789;BME280;25478;42.626;23.320;2023-02-11T09:49:22;94515.78;;;-1.05;56.52
39789;BME280;25478;42.626;23.320;2023-02-11T09:51:49;94508.22;;;-0.96;56.69
39789;BME280;25478;42.626;23.320;2023-02-11T09:54:22;94502.78;;;-0.95;55.19
39789;BME280;25478;42.626;23.320;2023-02-11T09:56:51;94496.28;;;-0.87;56.16
39789;BME280;25478;42.626;23.320;2023-02-11T09:59:16;94495.78;;;-0.84;55.21
39789;BME280;25478;42.626;23.320;2023-02-11T10:01:52;94490.28;;;-0.77;55.53
39789;BME280;25478;42.626;23.320;2023-02-11T10:04:29;94487.97;;;-0.74;55.68
39789;BME280;25478;42.626;23.320;2023-02-11T10:07:02;94489.97;;;-0.66;55.76
39789;BME280;25478;42.626;23.320;2023-02-11T10:22:53;94457.47;;;-0.43;53.40
39789;BME280;25478;42.626;23.320;2023-02-11T10:25:26;94448.72;;;-0.47;54.02
39789;BME280;25478;42.626;23.320;2023-02-11T10:27:53;94429.28;;;-0.44;53.08
39789;BME280;25478;42.626;23.320;2023-02-11T10:32:50;94423.75;;;-0.33;52.96
39789;BME280;25478;42.626;23.320;2023-02-11T10:35:20;94416.63;;;-0.17;52.83
39789;BME280;25478;42.626;23.320;2023-02-11T10:37:46;94404.38;;;-0.06;52.74
39789;BME280;25478;42.626;23.320;2023-02-11T10:40:16;94397.47;;;0.08;52.67
39789;BME280;25478;42.626;23.320;2023-02-11T10:42:42;94390.41;;;0.14;52.62
39789;BME280;25478;42.626;23.320;2023-02-11T10:45:14;94386.25;;;0.18;52.03
39789;BME280;25478;42.626;23.320;2023-02-11T10:47:41;94386.41;;;0.26;50.92
39789;BME280;25478;42.626;23.320;2023-02-11T10:50:18;94385.06;;;0.29;51.18
39789;BME280;25478;42.626;23.320;2023-02-11T10:52:43;94386.06;;;0.33;50.38
39789;BME280;25478;42.626;23.320;2023-02-11T10:57:35;94372.47;;;0.41;50.66
39789;BME280;25478;42.626;23.320;2023-02-11T11:02:42;94367.97;;;0.52;50.15
39789;BME280;25478;42.626;23.320;2023-02-11T11:05:15;94369.56;;;0.67;49.29
39789;BME280;25478;42.626;23.320;2023-02-11T11:07:50;94364.63;;;0.70;49.21
39789;BME280;25478;42.626;23.320;2023-02-11T11:13:00;94359.91;;;0.72;49.30
39789;BME280;25478;42.626;23.320;2023-02-11T11:15:30;94358.09;;;0.73;48.76
39789;BME280;25478;42.626;23.320;2023-02-11T11:18:11;94360.97;;;0.71;48.65
39789;BME280;25478;42.626;23.320;2023-02-11T11:20:37;94358.81;;;0.78;48.60
39789;BME280;25478;42.626;23.320;2023-02-11T11:23:08;94359.47;;;0.84;48.43
39789;BME280;25478;42.626;23.320;2023-02-11T11:25:34;94354.53;;;0.88;48.56
39789;BME280;25478;42.626;23.320;2023-02-11T11:28:02;94362.16;;;0.98;48.79
39789;BME280;25478;42.626;23.320;2023-02-11T11:30:38;94348.91;;;0.99;48.74
39789;BME280;25478;42.626;23.320;2023-02-11T11:33:05;94351.84;;;1.11;48.17
39789;BME280;25478;42.626;23.320;2023-02-11T11:35:41;94344.34;;;1.10;48.21
39789;BME280;25478;42.626;23.320;2023-02-11T11:38:10;94347.13;;;1.13;47.67
39789;BME280;25478;42.626;23.320;2023-02-11T11:40:38;94340.47;;;1.07;48.03
39789;BME280;25478;42.626;23.320;2023-02-11T11:45:28;94335.69;;;1.15;47.96
39789;BME280;25478;42.626;23.320;2023-02-11T11:50:39;94337.34;;;1.10;48.08
39789;BME280;25478;42.626;23.320;2023-02-11T11:53:09;94325.25;;;1.20;48.07
39789;BME280;25478;42.626;23.320;2023-02-11T11:55:40;94329.88;;;1.23;48.14
39789;BME280;25478;42.626;23.320;2023-02-11T11:58:17;94325.56;;;1.32;48.06
39789;BME280;25478;42.626;23.320;2023-02-11T12:06:01;94316.84;;;1.41;47.39
39789;BME280;25478;42.626;23.320;2023-02-11T12:08:35;94315.22;;;1.46;47.96
39789;BME280;25478;42.626;23.320;2023-02-11T12:11:15;94302.06;;;1.56;48.10
39789;BME280;25478;42.626;23.320;2023-02-11T12:14:07;94301.13;;;1.65;48.22
39789;BME280;25478;42.626;23.320;2023-02-11T12:16:35;94296.72;;;1.80;47.26
39789;BME280;25478;42.626;23.320;2023-02-11T12:21:52;94290.06;;;1.74;46.94
39789;BME280;25478;42.626;23.320;2023-02-11T12:44:51;94261.97;;;1.89;44.98
39789;BME280;25478;42.626;23.320;2023-02-11T12:50:09;94259.28;;;1.94;44.62
39789;BME280;25478;42.626;23.320;2023-02-11T12:55:16;94252.38;;;1.90;44.17
39789;BME280;25478;42.626;23.320;2023-02-11T12:57:44;94248.69;;;1.91;44.45
39789;BME280;25478;42.626;23.320;2023-02-11T13:00:17;94249.56;;;2.00;44.34
39789;BME280;25478;42.626;23.320;2023-02-11T13:03:02;94249.94;;;2.07;44.18
39789;BME280;25478;42.626;23.320;2023-02-11T13:05:37;94246.09;;;2.05;44.49
39789;BME280;25478;42.626;23.320;2023-02-11T13:08:04;94235.88;;;2.08;44.57
39789;BME280;25478;42.626;23.320;2023-02-11T13:10:35;94236.66;;;2.09;44.70
39789;BME280;25478;42.626;23.320;2023-02-11T13:13:03;94238.97;;;2.10;44.84
39789;BME280;25478;42.626;23.320;2023-02-11T13:16:05;94229.94;;;2.08;45.28
39789;BME280;25478;42.626;23.320;2023-02-11T13:21:22;94240.47;;;2.25;44.89
39789;BME280;25478;42.626;23.320;2023-02-11T13:24:13;94229.78;;;2.26;44.69
39789;BME280;25478;42.626;23.320;2023-02-11T13:31:55;94225.41;;;2.13;43.70
39789;BME280;25478;42.626;23.320;2023-02-11T13:34:25;94229.16;;;2.07;43.83
39789;BME280;25478;42.626;23.320;2023-02-11T13:36:55;94233.13;;;2.05;43.95
39789;BME280;25478;42.626;23.320;2023-02-11T13:39:21;94227.53;;;1.97;44.25
39789;BME280;25478;42.626;23.320;2023-02-11T13:41:47;94230.44;;;1.96;44.38
39789;BME280;25478;42.626;23.320;2023-02-11T13:49:39;94215.88;;;2.09;44.36
39789;BME280;25478;42.626;23.320;2023-02-11T13:57:36;94213.09;;;2.05;44.54
39789;BME280;25478;42.626;23.320;2023-02-11T14:02:31;94203.94;;;2.08;44.22
39789;BME280;25478;42.626;23.320;2023-02-11T14:05:26;94197.13;;;2.12;44.40
39789;BME280;25478;42.626;23.320;2023-02-11T14:10:58;94202.88;;;2.09;44.65
39789;BME280;25478;42.626;23.320;2023-02-11T14:13:25;94190.97;;;2.08;45.07
39789;BME280;25478;42.626;23.320;2023-02-11T14:16:07;94188.28;;;1.99;45.52
39789;BME280;25478;42.626;23.320;2023-02-11T14:21:29;94191.53;;;1.68;46.55
39789;BME280;25478;42.626;23.320;2023-02-11T14:29:02;94189.50;;;1.10;48.25
39789;BME280;25478;42.626;23.320;2023-02-11T14:42:04;94186.91;;;0.32;49.72
39789;BME280;25478;42.626;23.320;2023-02-11T14:44:30;94191.25;;;0.17;49.75
39789;BME280;25478;42.626;23.320;2023-02-11T14:46:57;94191.66;;;0.06;50.12
39789;BME280;25478;42.626;23.320;2023-02-11T14:49:23;94192.09;;;-0.06;50.48
39789;BME280;25478;42.626;23.320;2023-02-11T14:51:51;94188.09;;;-0.17;50.59
39789;BME280;25478;42.626;23.320;2023-02-11T14:54:19;94193.88;;;-0.25;50.72
39789;BME280;25478;42.626;23.320;2023-02-11T14:57:05;94189.59;;;-0.35;51.09
39789;BME280;25478;42.626;23.320;2023-02-11T14:59:31;94187.16;;;-0.45;51.20
39789;BME280;25478;42.626;23.320;2023-02-11T15:01:56;94187.00;;;-0.54;51.25
39789;BME280;25478;42.626;23.320;2023-02-11T15:04:27;94188.38;;;-0.62;52.00
39789;BME280;25478;42.626;23.320;2023-02-11T15:06:53;94176.06;;;-0.70;51.45
39789;BME280;25478;42.626;23.320;2023-02-11T15:09:24;94178.97;;;-0.76;51.52
39789;BME280;25478;42.626;23.320;2023-02-11T15:11:54;94180.38;;;-0.84;51.50
39789;BME280;25478;42.626;23.320;2023-02-11T15:16:51;94168.09;;;-0.97;52.50
39789;BME280;25478;42.626;23.320;2023-02-11T15:19:21;94158.63;;;-1.07;52.52
39789;BME280;25478;42.626;23.320;2023-02-11T15:21:48;94167.94;;;-1.11;52.37
39789;BME280;25478;42.626;23.320;2023-02-11T15:29:23;94151.06;;;-1.27;53.33
39789;BME280;25478;42.626;23.320;2023-02-11T15:32:01;94152.66;;;-1.31;53.54